Terminal Aerodrome Forecast
Issued by NWS

Home | Current Version | Previous Version | Text Only | Print | Product List | Glossary On
Versions: 1 2 3 4 5 6 7 8 9 10 11 12 13 14 15 16 17 18 19 20 21 22 23
929
FTUS43 KJKL 101603 AAA
TAFSME
TAF AMD
KSME 101603Z 1016/1112 27012KT P6SM VCSH SCT020 OVC035
     FM102200 28011KT P6SM BKN030=

USA.gov is the U.S. government's official web portal to all federal, state and local government web resources and services.